sensor_id;sensor_type;location;lat;lon;timestamp;P1;durP1;ratioP1;P2;durP2;ratioP2
14139;SDS011;7150;53.514;9.988;2023-06-04T00:00:35;3.53;;;2.30;;
14139;SDS011;7150;53.514;9.988;2023-06-04T00:03:00;5.03;;;2.63;;
14139;SDS011;7150;53.514;9.988;2023-06-04T00:05:26;3.53;;;2.13;;
14139;SDS011;7150;53.514;9.988;2023-06-04T00:07:52;4.00;;;2.43;;
14139;SDS011;7150;53.514;9.988;2023-06-04T00:10:17;4.57;;;2.70;;
14139;SDS011;7150;53.514;9.988;2023-06-04T00:12:43;4.67;;;3.17;;
14139;SDS011;7150;53.514;9.988;2023-06-04T00:15:08;4.07;;;2.70;;
14139;SDS011;7150;53.514;9.988;2023-06-04T00:17:34;4.00;;;2.80;;
14139;SDS011;7150;53.514;9.988;2023-06-04T00:20:00;4.37;;;2.87;;
14139;SDS011;7150;53.514;9.988;2023-06-04T00:22:25;4.93;;;2.70;;
14139;SDS011;7150;53.514;9.988;2023-06-04T00:24:51;4.93;;;3.27;;
14139;SDS011;7150;53.514;9.988;2023-06-04T00:27:16;4.93;;;2.77;;
14139;SDS011;7150;53.514;9.988;2023-06-04T00:29:42;4.97;;;2.97;;
14139;SDS011;7150;53.514;9.988;2023-06-04T00:32:08;5.60;;;3.00;;
14139;SDS011;7150;53.514;9.988;2023-06-04T00:34:34;5.27;;;3.00;;
14139;SDS011;7150;53.514;9.988;2023-06-04T00:36:59;3.70;;;3.00;;
14139;SDS011;7150;53.514;9.988;2023-06-04T00:39:26;4.83;;;2.87;;
14139;SDS011;7150;53.514;9.988;2023-06-04T00:41:52;4.47;;;2.90;;
14139;SDS011;7150;53.514;9.988;2023-06-04T00:44:17;3.70;;;2.53;;
14139;SDS011;7150;53.514;9.988;2023-06-04T00:46:43;3.10;;;2.63;;
14139;SDS011;7150;53.514;9.988;2023-06-04T00:49:10;3.87;;;2.30;;
14139;SDS011;7150;53.514;9.988;2023-06-04T00:51:37;6.40;;;2.40;;
14139;SDS011;7150;53.514;9.988;2023-06-04T00:54:03;5.53;;;2.57;;
14139;SDS011;7150;53.514;9.988;2023-06-04T00:56:33;3.23;;;2.10;;
14139;SDS011;7150;53.514;9.988;2023-06-04T00:59:00;3.10;;;1.80;;
14139;SDS011;7150;53.514;9.988;2023-06-04T01:01:26;3.87;;;2.27;;
14139;SDS011;7150;53.514;9.988;2023-06-04T01:03:58;3.70;;;2.23;;
14139;SDS011;7150;53.514;9.988;2023-06-04T01:06:28;2.93;;;2.17;;
14139;SDS011;7150;53.514;9.988;2023-06-04T01:09:00;4.50;;;2.40;;
14139;SDS011;7150;53.514;9.988;2023-06-04T01:11:30;2.80;;;1.90;;
14139;SDS011;7150;53.514;9.988;2023-06-04T01:14:00;2.87;;;1.90;;
14139;SDS011;7150;53.514;9.988;2023-06-04T01:16:26;2.43;;;1.70;;
14139;SDS011;7150;53.514;9.988;2023-06-04T01:18:56;2.33;;;1.73;;
14139;SDS011;7150;53.514;9.988;2023-06-04T01:21:24;3.70;;;1.90;;
14139;SDS011;7150;53.514;9.988;2023-06-04T01:23:54;2.60;;;1.80;;
14139;SDS011;7150;53.514;9.988;2023-06-04T01:26:26;3.50;;;2.07;;
14139;SDS011;7150;53.514;9.988;2023-06-04T01:28:53;2.43;;;2.00;;
14139;SDS011;7150;53.514;9.988;2023-06-04T01:31:21;3.23;;;2.07;;
14139;SDS011;7150;53.514;9.988;2023-06-04T01:33:50;2.50;;;2.07;;
14139;SDS011;7150;53.514;9.988;2023-06-04T01:36:25;3.60;;;2.00;;
14139;SDS011;7150;53.514;9.988;2023-06-04T01:38:51;4.17;;;2.20;;
14139;SDS011;7150;53.514;9.988;2023-06-04T01:41:16;3.50;;;2.10;;
14139;SDS011;7150;53.514;9.988;2023-06-04T01:43:42;4.00;;;2.20;;
14139;SDS011;7150;53.514;9.988;2023-06-04T01:46:08;2.80;;;2.00;;
14139;SDS011;7150;53.514;9.988;2023-06-04T01:48:33;5.23;;;2.30;;
14139;SDS011;7150;53.514;9.988;2023-06-04T01:51:00;7.63;;;2.50;;
14139;SDS011;7150;53.514;9.988;2023-06-04T01:53:25;4.30;;;1.87;;
14139;SDS011;7150;53.514;9.988;2023-06-04T01:55:51;6.00;;;2.10;;
14139;SDS011;7150;53.514;9.988;2023-06-04T01:58:17;3.90;;;2.20;;
14139;SDS011;7150;53.514;9.988;2023-06-04T02:00:47;3.40;;;2.20;;
14139;SDS011;7150;53.514;9.988;2023-06-04T02:03:14;7.40;;;2.40;;
14139;SDS011;7150;53.514;9.988;2023-06-04T02:05:40;3.37;;;2.43;;
14139;SDS011;7150;53.514;9.988;2023-06-04T02:08:06;4.73;;;2.87;;
14139;SDS011;7150;53.514;9.988;2023-06-04T02:10:32;5.47;;;2.40;;
14139;SDS011;7150;53.514;9.988;2023-06-04T02:12:58;3.83;;;3.00;;
14139;SDS011;7150;53.514;9.988;2023-06-04T02:15:25;5.63;;;2.43;;
14139;SDS011;7150;53.514;9.988;2023-06-04T02:17:53;3.07;;;2.30;;
14139;SDS011;7150;53.514;9.988;2023-06-04T02:20:23;3.70;;;2.10;;
14139;SDS011;7150;53.514;9.988;2023-06-04T02:22:48;3.50;;;2.33;;
14139;SDS011;7150;53.514;9.988;2023-06-04T02:25:14;4.20;;;2.30;;
14139;SDS011;7150;53.514;9.988;2023-06-04T02:27:40;2.97;;;2.10;;
14139;SDS011;7150;53.514;9.988;2023-06-04T02:30:06;3.53;;;2.17;;
14139;SDS011;7150;53.514;9.988;2023-06-04T02:32:32;3.20;;;2.30;;
14139;SDS011;7150;53.514;9.988;2023-06-04T02:34:58;4.60;;;2.50;;
14139;SDS011;7150;53.514;9.988;2023-06-04T02:37:24;3.43;;;2.10;;
14139;SDS011;7150;53.514;9.988;2023-06-04T02:39:50;5.07;;;2.30;;
14139;SDS011;7150;53.514;9.988;2023-06-04T02:42:15;3.23;;;2.17;;
14139;SDS011;7150;53.514;9.988;2023-06-04T02:44:41;2.43;;;1.80;;
14139;SDS011;7150;53.514;9.988;2023-06-04T02:47:06;2.73;;;1.63;;
14139;SDS011;7150;53.514;9.988;2023-06-04T02:49:32;2.77;;;1.97;;
14139;SDS011;7150;53.514;9.988;2023-06-04T02:51:57;3.27;;;1.83;;
14139;SDS011;7150;53.514;9.988;2023-06-04T02:54:23;2.40;;;1.90;;
14139;SDS011;7150;53.514;9.988;2023-06-04T02:56:48;2.33;;;1.83;;
14139;SDS011;7150;53.514;9.988;2023-06-04T02:59:14;3.37;;;2.03;;
14139;SDS011;7150;53.514;9.988;2023-06-04T03:01:40;2.93;;;2.20;;
14139;SDS011;7150;53.514;9.988;2023-06-04T03:04:05;2.97;;;2.03;;
14139;SDS011;7150;53.514;9.988;2023-06-04T03:06:34;3.67;;;1.90;;
14139;SDS011;7150;53.514;9.988;2023-06-04T03:09:03;4.27;;;2.10;;
14139;SDS011;7150;53.514;9.988;2023-06-04T03:11:29;5.30;;;1.70;;
14139;SDS011;7150;53.514;9.988;2023-06-04T03:13:54;5.90;;;2.50;;
14139;SDS011;7150;53.514;9.988;2023-06-04T03:16:20;2.97;;;2.00;;
14139;SDS011;7150;53.514;9.988;2023-06-04T03:18:46;4.30;;;2.30;;
14139;SDS011;7150;53.514;9.988;2023-06-04T03:21:12;2.33;;;1.90;;
14139;SDS011;7150;53.514;9.988;2023-06-04T03:23:38;2.33;;;1.90;;
14139;SDS011;7150;53.514;9.988;2023-06-04T03:26:04;2.57;;;1.90;;
14139;SDS011;7150;53.514;9.988;2023-06-04T03:28:31;2.40;;;1.90;;
14139;SDS011;7150;53.514;9.988;2023-06-04T03:30:57;2.53;;;2.00;;
14139;SDS011;7150;53.514;9.988;2023-06-04T03:33:23;3.37;;;2.30;;
14139;SDS011;7150;53.514;9.988;2023-06-04T03:35:50;3.17;;;2.10;;
14139;SDS011;7150;53.514;9.988;2023-06-04T03:38:17;3.60;;;1.90;;
14139;SDS011;7150;53.514;9.988;2023-06-04T03:40:43;3.40;;;2.47;;
14139;SDS011;7150;53.514;9.988;2023-06-04T03:43:09;3.67;;;2.30;;
14139;SDS011;7150;53.514;9.988;2023-06-04T03:45:34;2.27;;;1.70;;
14139;SDS011;7150;53.514;9.988;2023-06-04T03:48:00;3.40;;;2.03;;
14139;SDS011;7150;53.514;9.988;2023-06-04T03:50:25;2.97;;;2.37;;
14139;SDS011;7150;53.514;9.988;2023-06-04T03:52:51;2.90;;;2.07;;
14139;SDS011;7150;53.514;9.988;2023-06-04T03:55:17;2.97;;;1.90;;
14139;SDS011;7150;53.514;9.988;2023-06-04T03:57:42;3.00;;;1.70;;
14139;SDS011;7150;53.514;9.988;2023-06-04T04:00:08;4.37;;;2.30;;
14139;SDS011;7150;53.514;9.988;2023-06-04T04:02:39;3.77;;;1.97;;
14139;SDS011;7150;53.514;9.988;2023-06-04T04:05:05;4.13;;;2.00;;
14139;SDS011;7150;53.514;9.988;2023-06-04T04:07:31;2.17;;;1.70;;
14139;SDS011;7150;53.514;9.988;2023-06-04T04:09:56;3.20;;;2.13;;
14139;SDS011;7150;53.514;9.988;2023-06-04T04:12:22;3.43;;;2.10;;
14139;SDS011;7150;53.514;9.988;2023-06-04T04:14:47;4.33;;;2.00;;
14139;SDS011;7150;53.514;9.988;2023-06-04T04:17:13;2.97;;;1.87;;
14139;SDS011;7150;53.514;9.988;2023-06-04T04:19:39;2.60;;;1.90;;
14139;SDS011;7150;53.514;9.988;2023-06-04T04:22:05;4.07;;;2.43;;
14139;SDS011;7150;53.514;9.988;2023-06-04T04:24:31;3.20;;;1.63;;
14139;SDS011;7150;53.514;9.988;2023-06-04T04:26:59;4.27;;;2.20;;
14139;SDS011;7150;53.514;9.988;2023-06-04T04:29:24;2.70;;;2.13;;
14139;SDS011;7150;53.514;9.988;2023-06-04T04:31:51;2.83;;;1.83;;
14139;SDS011;7150;53.514;9.988;2023-06-04T04:34:16;2.53;;;2.00;;
14139;SDS011;7150;53.514;9.988;2023-06-04T04:36:45;2.40;;;1.50;;
14139;SDS011;7150;53.514;9.988;2023-06-04T04:39:17;3.57;;;1.57;;
14139;SDS011;7150;53.514;9.988;2023-06-04T04:41:44;3.70;;;2.00;;
14139;SDS011;7150;53.514;9.988;2023-06-04T04:44:09;2.57;;;1.67;;
14139;SDS011;7150;53.514;9.988;2023-06-04T04:46:35;3.33;;;1.80;;
14139;SDS011;7150;53.514;9.988;2023-06-04T04:49:00;4.87;;;1.70;;
14139;SDS011;7150;53.514;9.988;2023-06-04T04:51:26;2.37;;;1.90;;
14139;SDS011;7150;53.514;9.988;2023-06-04T04:53:52;2.10;;;1.60;;
14139;SDS011;7150;53.514;9.988;2023-06-04T04:56:19;2.87;;;1.57;;
14139;SDS011;7150;53.514;9.988;2023-06-04T04:58:45;4.30;;;1.73;;
14139;SDS011;7150;53.514;9.988;2023-06-04T05:01:10;2.20;;;1.43;;
14139;SDS011;7150;53.514;9.988;2023-06-04T05:03:36;2.17;;;1.73;;
14139;SDS011;7150;53.514;9.988;2023-06-04T05:06:01;3.53;;;1.87;;
14139;SDS011;7150;53.514;9.988;2023-06-04T05:08:27;2.13;;;1.40;;
14139;SDS011;7150;53.514;9.988;2023-06-04T05:10:52;3.60;;;1.90;;
14139;SDS011;7150;53.514;9.988;2023-06-04T05:13:18;1.70;;;1.30;;
14139;SDS011;7150;53.514;9.988;2023-06-04T05:15:44;2.70;;;1.70;;
14139;SDS011;7150;53.514;9.988;2023-06-04T05:18:10;4.10;;;1.67;;
14139;SDS011;7150;53.514;9.988;2023-06-04T05:20:35;3.47;;;1.80;;
14139;SDS011;7150;53.514;9.988;2023-06-04T05:23:02;2.07;;;1.43;;
14139;SDS011;7150;53.514;9.988;2023-06-04T05:25:29;2.93;;;1.37;;
14139;SDS011;7150;53.514;9.988;2023-06-04T05:27:55;2.30;;;1.50;;
14139;SDS011;7150;53.514;9.988;2023-06-04T05:30:21;2.90;;;1.50;;
14139;SDS011;7150;53.514;9.988;2023-06-04T05:32:47;2.17;;;1.53;;
14139;SDS011;7150;53.514;9.988;2023-06-04T05:35:15;4.50;;;1.90;;
14139;SDS011;7150;53.514;9.988;2023-06-04T05:37:41;3.97;;;1.60;;
14139;SDS011;7150;53.514;9.988;2023-06-04T05:40:07;4.20;;;1.97;;
14139;SDS011;7150;53.514;9.988;2023-06-04T05:42:33;3.07;;;1.80;;
14139;SDS011;7150;53.514;9.988;2023-06-04T05:44:59;2.20;;;1.80;;
14139;SDS011;7150;53.514;9.988;2023-06-04T05:47:25;2.57;;;1.87;;
14139;SDS011;7150;53.514;9.988;2023-06-04T05:49:53;3.17;;;1.90;;
14139;SDS011;7150;53.514;9.988;2023-06-04T05:52:19;4.03;;;1.83;;
14139;SDS011;7150;53.514;9.988;2023-06-04T05:54:44;4.30;;;2.13;;
14139;SDS011;7150;53.514;9.988;2023-06-04T05:57:10;3.87;;;2.10;;
14139;SDS011;7150;53.514;9.988;2023-06-04T05:59:35;2.77;;;1.83;;
14139;SDS011;7150;53.514;9.988;2023-06-04T06:02:01;3.47;;;1.90;;
14139;SDS011;7150;53.514;9.988;2023-06-04T06:04:27;4.13;;;1.63;;
14139;SDS011;7150;53.514;9.988;2023-06-04T06:06:52;2.93;;;1.53;;
14139;SDS011;7150;53.514;9.988;2023-06-04T06:09:19;3.83;;;1.97;;
14139;SDS011;7150;53.514;9.988;2023-06-04T06:11:44;3.83;;;1.77;;
14139;SDS011;7150;53.514;9.988;2023-06-04T06:14:10;3.57;;;1.67;;
14139;SDS011;7150;53.514;9.988;2023-06-04T06:16:35;4.50;;;1.70;;
14139;SDS011;7150;53.514;9.988;2023-06-04T06:19:01;4.27;;;1.70;;
14139;SDS011;7150;53.514;9.988;2023-06-04T06:21:27;2.27;;;1.70;;
14139;SDS011;7150;53.514;9.988;2023-06-04T06:23:53;3.33;;;1.93;;
14139;SDS011;7150;53.514;9.988;2023-06-04T06:26:19;3.97;;;1.90;;
14139;SDS011;7150;53.514;9.988;2023-06-04T06:28:45;2.97;;;1.67;;
14139;SDS011;7150;53.514;9.988;2023-06-04T06:31:10;1.97;;;1.77;;
14139;SDS011;7150;53.514;9.988;2023-06-04T06:33:36;2.27;;;1.77;;
14139;SDS011;7150;53.514;9.988;2023-06-04T06:36:06;5.97;;;1.97;;
14139;SDS011;7150;53.514;9.988;2023-06-04T06:38:32;5.03;;;1.90;;
14139;SDS011;7150;53.514;9.988;2023-06-04T06:40:57;2.33;;;1.40;;
14139;SDS011;7150;53.514;9.988;2023-06-04T06:43:23;3.97;;;1.80;;
14139;SDS011;7150;53.514;9.988;2023-06-04T06:45:48;4.87;;;1.80;;
14139;SDS011;7150;53.514;9.988;2023-06-04T06:48:14;18.27;;;3.43;;
14139;SDS011;7150;53.514;9.988;2023-06-04T06:50:39;7.67;;;2.50;;
14139;SDS011;7150;53.514;9.988;2023-06-04T06:53:04;4.47;;;2.17;;
14139;SDS011;7150;53.514;9.988;2023-06-04T06:55:30;2.37;;;1.60;;
14139;SDS011;7150;53.514;9.988;2023-06-04T06:57:55;3.43;;;1.50;;
14139;SDS011;7150;53.514;9.988;2023-06-04T07:00:21;3.13;;;1.60;;
14139;SDS011;7150;53.514;9.988;2023-06-04T07:02:47;3.83;;;1.90;;
14139;SDS011;7150;53.514;9.988;2023-06-04T07:05:13;3.80;;;1.70;;
14139;SDS011;7150;53.514;9.988;2023-06-04T07:07:40;7.17;;;2.03;;
14139;SDS011;7150;53.514;9.988;2023-06-04T07:10:05;4.43;;;1.80;;
14139;SDS011;7150;53.514;9.988;2023-06-04T07:12:31;4.10;;;1.83;;
14139;SDS011;7150;53.514;9.988;2023-06-04T07:14:56;2.90;;;1.40;;
14139;SDS011;7150;53.514;9.988;2023-06-04T07:17:22;4.90;;;2.17;;
14139;SDS011;7150;53.514;9.988;2023-06-04T07:19:47;3.40;;;1.93;;
14139;SDS011;7150;53.514;9.988;2023-06-04T07:22:13;2.37;;;1.70;;
14139;SDS011;7150;53.514;9.988;2023-06-04T07:24:40;6.33;;;2.53;;
14139;SDS011;7150;53.514;9.988;2023-06-04T07:27:13;4.67;;;1.93;;
14139;SDS011;7150;53.514;9.988;2023-06-04T07:29:39;5.10;;;1.70;;
14139;SDS011;7150;53.514;9.988;2023-06-04T07:32:08;4.93;;;2.10;;
14139;SDS011;7150;53.514;9.988;2023-06-04T07:34:33;2.70;;;1.60;;
14139;SDS011;7150;53.514;9.988;2023-06-04T07:36:59;3.97;;;2.00;;
14139;SDS011;7150;53.514;9.988;2023-06-04T07:39:25;6.13;;;2.37;;
14139;SDS011;7150;53.514;9.988;2023-06-04T07:41:50;7.30;;;3.07;;
14139;SDS011;7150;53.514;9.988;2023-06-04T07:44:16;3.77;;;2.00;;
14139;SDS011;7150;53.514;9.988;2023-06-04T07:46:41;3.17;;;1.93;;
14139;SDS011;7150;53.514;9.988;2023-06-04T07:49:06;6.37;;;2.53;;
14139;SDS011;7150;53.514;9.988;2023-06-04T07:51:33;6.00;;;2.23;;
14139;SDS011;7150;53.514;9.988;2023-06-04T07:53:59;3.17;;;1.90;;
14139;SDS011;7150;53.514;9.988;2023-06-04T07:56:25;6.17;;;2.20;;
14139;SDS011;7150;53.514;9.988;2023-06-04T07:58:51;3.40;;;2.10;;
14139;SDS011;7150;53.514;9.988;2023-06-04T08:01:17;2.90;;;1.50;;
14139;SDS011;7150;53.514;9.988;2023-06-04T08:03:42;6.47;;;2.03;;
14139;SDS011;7150;53.514;9.988;2023-06-04T08:06:08;5.50;;;2.03;;
14139;SDS011;7150;53.514;9.988;2023-06-04T08:08:34;2.27;;;1.70;;
14139;SDS011;7150;53.514;9.988;2023-06-04T08:11:00;4.93;;;2.40;;
14139;SDS011;7150;53.514;9.988;2023-06-04T08:13:26;3.90;;;1.77;;
14139;SDS011;7150;53.514;9.988;2023-06-04T08:15:51;4.27;;;2.00;;
14139;SDS011;7150;53.514;9.988;2023-06-04T08:18:17;3.90;;;2.10;;
14139;SDS011;7150;53.514;9.988;2023-06-04T08:20:42;1.70;;;1.47;;
14139;SDS011;7150;53.514;9.988;2023-06-04T08:23:08;2.23;;;1.87;;
14139;SDS011;7150;53.514;9.988;2023-06-04T08:25:33;3.60;;;1.30;;
14139;SDS011;7150;53.514;9.988;2023-06-04T08:27:59;5.00;;;2.30;;
14139;SDS011;7150;53.514;9.988;2023-06-04T08:30:25;2.67;;;1.60;;
14139;SDS011;7150;53.514;9.988;2023-06-04T08:32:52;6.93;;;1.80;;
14139;SDS011;7150;53.514;9.988;2023-06-04T08:35:18;3.37;;;1.73;;
14139;SDS011;7150;53.514;9.988;2023-06-04T08:37:44;2.70;;;1.63;;
14139;SDS011;7150;53.514;9.988;2023-06-04T08:40:09;3.73;;;1.77;;
14139;SDS011;7150;53.514;9.988;2023-06-04T08:42:43;2.43;;;1.50;;
14139;SDS011;7150;53.514;9.988;2023-06-04T08:45:10;2.30;;;1.60;;
14139;SDS011;7150;53.514;9.988;2023-06-04T08:47:44;3.33;;;2.20;;
14139;SDS011;7150;53.514;9.988;2023-06-04T08:50:14;6.80;;;1.80;;
14139;SDS011;7150;53.514;9.988;2023-06-04T08:52:43;3.03;;;1.90;;
14139;SDS011;7150;53.514;9.988;2023-06-04T08:55:11;2.03;;;1.20;;
14139;SDS011;7150;53.514;9.988;2023-06-04T08:57:38;3.07;;;1.70;;
14139;SDS011;7150;53.514;9.988;2023-06-04T09:00:05;3.83;;;1.50;;
14139;SDS011;7150;53.514;9.988;2023-06-04T09:02:33;4.03;;;1.70;;
14139;SDS011;7150;53.514;9.988;2023-06-04T09:05:04;3.13;;;1.50;;
14139;SDS011;7150;53.514;9.988;2023-06-04T09:07:35;4.23;;;1.60;;
14139;SDS011;7150;53.514;9.988;2023-06-04T09:10:06;3.27;;;1.70;;
14139;SDS011;7150;53.514;9.988;2023-06-04T09:12:33;3.20;;;1.70;;
14139;SDS011;7150;53.514;9.988;2023-06-04T09:15:02;2.93;;;1.20;;
14139;SDS011;7150;53.514;9.988;2023-06-04T09:17:27;2.40;;;1.80;;
14139;SDS011;7150;53.514;9.988;2023-06-04T09:19:53;3.93;;;1.60;;
14139;SDS011;7150;53.514;9.988;2023-06-04T09:22:19;2.20;;;1.50;;
14139;SDS011;7150;53.514;9.988;2023-06-04T09:24:45;2.40;;;1.43;;
14139;SDS011;7150;53.514;9.988;2023-06-04T09:27:18;4.03;;;1.50;;
14139;SDS011;7150;53.514;9.988;2023-06-04T09:32:23;2.07;;;1.40;;
14139;SDS011;7150;53.514;9.988;2023-06-04T09:34:53;3.77;;;1.50;;
14139;SDS011;7150;53.514;9.988;2023-06-04T09:37:22;2.83;;;1.70;;
14139;SDS011;7150;53.514;9.988;2023-06-04T09:39:56;3.03;;;1.67;;
14139;SDS011;7150;53.514;9.988;2023-06-04T09:42:22;1.90;;;1.40;;
14139;SDS011;7150;53.514;9.988;2023-06-04T09:44:48;1.80;;;1.40;;
14139;SDS011;7150;53.514;9.988;2023-06-04T09:47:13;2.23;;;1.30;;
14139;SDS011;7150;53.514;9.988;2023-06-04T09:49:43;1.60;;;1.23;;
14139;SDS011;7150;53.514;9.988;2023-06-04T09:52:14;2.40;;;1.40;;
14139;SDS011;7150;53.514;9.988;2023-06-04T09:54:40;1.47;;;1.37;;
14139;SDS011;7150;53.514;9.988;2023-06-04T09:57:15;3.17;;;1.30;;
14139;SDS011;7150;53.514;9.988;2023-06-04T09:59:43;2.43;;;1.10;;
14139;SDS011;7150;53.514;9.988;2023-06-04T10:02:17;2.87;;;1.30;;
14139;SDS011;7150;53.514;9.988;2023-06-04T10:04:46;2.67;;;1.10;;
14139;SDS011;7150;53.514;9.988;2023-06-04T10:07:17;3.50;;;1.90;;
14139;SDS011;7150;53.514;9.988;2023-06-04T10:09:43;3.20;;;1.40;;
14139;SDS011;7150;53.514;9.988;2023-06-04T10:12:13;2.10;;;1.40;;
14139;SDS011;7150;53.514;9.988;2023-06-04T10:14:41;1.77;;;1.43;;
14139;SDS011;7150;53.514;9.988;2023-06-04T10:17:21;3.20;;;1.37;;
14139;SDS011;7150;53.514;9.988;2023-06-04T10:19:48;1.93;;;1.40;;
14139;SDS011;7150;53.514;9.988;2023-06-04T10:22:17;2.03;;;1.30;;
14139;SDS011;7150;53.514;9.988;2023-06-04T10:24:43;3.50;;;1.57;;
14139;SDS011;7150;53.514;9.988;2023-06-04T10:27:09;1.47;;;1.10;;
14139;SDS011;7150;53.514;9.988;2023-06-04T10:29:38;2.53;;;1.40;;
14139;SDS011;7150;53.514;9.988;2023-06-04T10:32:04;2.43;;;1.30;;
14139;SDS011;7150;53.514;9.988;2023-06-04T10:34:30;3.43;;;1.43;;
14139;SDS011;7150;53.514;9.988;2023-06-04T10:36:56;2.73;;;1.70;;
14139;SDS011;7150;53.514;9.988;2023-06-04T10:39:26;2.10;;;1.40;;
14139;SDS011;7150;53.514;9.988;2023-06-04T10:42:02;3.33;;;1.50;;
14139;SDS011;7150;53.514;9.988;2023-06-04T10:44:31;2.83;;;1.40;;
14139;SDS011;7150;53.514;9.988;2023-06-04T10:47:17;4.27;;;1.50;;
14139;SDS011;7150;53.514;9.988;2023-06-04T10:49:46;2.23;;;1.50;;
14139;SDS011;7150;53.514;9.988;2023-06-04T10:52:12;2.27;;;1.37;;
14139;SDS011;7150;53.514;9.988;2023-06-04T10:54:37;2.60;;;1.23;;
14139;SDS011;7150;53.514;9.988;2023-06-04T10:57:10;2.57;;;1.30;;
14139;SDS011;7150;53.514;9.988;2023-06-04T10:59:39;2.10;;;1.30;;
14139;SDS011;7150;53.514;9.988;2023-06-04T11:02:05;3.87;;;1.50;;
14139;SDS011;7150;53.514;9.988;2023-06-04T11:04:32;1.43;;;1.20;;
14139;SDS011;7150;53.514;9.988;2023-06-04T11:09:27;2.27;;;1.30;;
14139;SDS011;7150;53.514;9.988;2023-06-04T11:11:56;2.53;;;1.77;;
14139;SDS011;7150;53.514;9.988;2023-06-04T11:14:25;3.63;;;1.60;;
14139;SDS011;7150;53.514;9.988;2023-06-04T11:16:51;4.13;;;1.70;;
14139;SDS011;7150;53.514;9.988;2023-06-04T11:19:17;5.27;;;1.63;;
14139;SDS011;7150;53.514;9.988;2023-06-04T11:21:43;1.80;;;1.40;;
14139;SDS011;7150;53.514;9.988;2023-06-04T11:24:09;2.23;;;1.50;;
14139;SDS011;7150;53.514;9.988;2023-06-04T11:26:37;3.43;;;1.77;;
14139;SDS011;7150;53.514;9.988;2023-06-04T11:29:05;2.33;;;1.70;;
14139;SDS011;7150;53.514;9.988;2023-06-04T11:31:43;2.73;;;1.40;;
14139;SDS011;7150;53.514;9.988;2023-06-04T11:34:10;1.90;;;1.60;;
14139;SDS011;7150;53.514;9.988;2023-06-04T11:36:38;2.67;;;1.40;;
14139;SDS011;7150;53.514;9.988;2023-06-04T11:39:04;1.47;;;1.13;;
14139;SDS011;7150;53.514;9.988;2023-06-04T11:41:34;3.93;;;1.30;;
14139;SDS011;7150;53.514;9.988;2023-06-04T11:44:04;3.20;;;1.47;;
14139;SDS011;7150;53.514;9.988;2023-06-04T11:46:35;3.10;;;1.63;;
14139;SDS011;7150;53.514;9.988;2023-06-04T11:49:04;3.27;;;1.30;;
14139;SDS011;7150;53.514;9.988;2023-06-04T11:51:30;4.67;;;2.00;;
14139;SDS011;7150;53.514;9.988;2023-06-04T11:53:56;1.97;;;1.30;;
14139;SDS011;7150;53.514;9.988;2023-06-04T11:56:23;2.70;;;1.60;;
14139;SDS011;7150;53.514;9.988;2023-06-04T11:58:50;4.53;;;1.77;;
14139;SDS011;7150;53.514;9.988;2023-06-04T12:01:16;3.87;;;2.07;;
14139;SDS011;7150;53.514;9.988;2023-06-04T12:03:42;4.63;;;1.63;;
14139;SDS011;7150;53.514;9.988;2023-06-04T12:08:44;4.20;;;1.67;;
14139;SDS011;7150;53.514;9.988;2023-06-04T12:11:27;1.80;;;1.10;;
14139;SDS011;7150;53.514;9.988;2023-06-04T12:13:57;3.33;;;1.30;;
14139;SDS011;7150;53.514;9.988;2023-06-04T12:16:24;2.60;;;1.50;;
14139;SDS011;7150;53.514;9.988;2023-06-04T12:18:50;2.80;;;1.40;;
14139;SDS011;7150;53.514;9.988;2023-06-04T12:21:23;2.53;;;1.40;;
14139;SDS011;7150;53.514;9.988;2023-06-04T12:23:53;2.13;;;1.50;;
14139;SDS011;7150;53.514;9.988;2023-06-04T12:26:20;1.47;;;1.37;;
14139;SDS011;7150;53.514;9.988;2023-06-04T12:29:00;1.77;;;1.17;;
14139;SDS011;7150;53.514;9.988;2023-06-04T12:31:26;2.87;;;1.50;;
14139;SDS011;7150;53.514;9.988;2023-06-04T12:33:56;2.27;;;1.43;;
14139;SDS011;7150;53.514;9.988;2023-06-04T12:36:25;2.60;;;1.73;;
14139;SDS011;7150;53.514;9.988;2023-06-04T12:38:51;1.40;;;1.27;;
14139;SDS011;7150;53.514;9.988;2023-06-04T12:41:17;2.97;;;1.47;;
14139;SDS011;7150;53.514;9.988;2023-06-04T12:43:42;3.87;;;1.60;;
14139;SDS011;7150;53.514;9.988;2023-06-04T12:46:08;2.43;;;1.50;;
14139;SDS011;7150;53.514;9.988;2023-06-04T12:48:34;2.47;;;1.30;;
14139;SDS011;7150;53.514;9.988;2023-06-04T12:51:00;2.70;;;1.40;;
14139;SDS011;7150;53.514;9.988;2023-06-04T12:53:25;3.07;;;1.80;;
14139;SDS011;7150;53.514;9.988;2023-06-04T12:55:51;2.37;;;1.40;;
14139;SDS011;7150;53.514;9.988;2023-06-04T12:58:16;2.57;;;1.30;;
14139;SDS011;7150;53.514;9.988;2023-06-04T13:00:42;2.03;;;1.50;;
14139;SDS011;7150;53.514;9.988;2023-06-04T13:03:07;4.30;;;1.70;;
14139;SDS011;7150;53.514;9.988;2023-06-04T13:05:36;2.07;;;1.40;;
14139;SDS011;7150;53.514;9.988;2023-06-04T13:08:01;2.20;;;1.63;;
14139;SDS011;7150;53.514;9.988;2023-06-04T13:10:27;3.17;;;1.57;;
14139;SDS011;7150;53.514;9.988;2023-06-04T13:12:52;3.30;;;2.07;;
14139;SDS011;7150;53.514;9.988;2023-06-04T13:15:18;3.20;;;1.30;;
14139;SDS011;7150;53.514;9.988;2023-06-04T13:17:43;1.80;;;1.53;;
14139;SDS011;7150;53.514;9.988;2023-06-04T13:20:09;2.87;;;1.63;;
14139;SDS011;7150;53.514;9.988;2023-06-04T13:22:35;2.50;;;1.63;;
14139;SDS011;7150;53.514;9.988;2023-06-04T13:25:01;2.17;;;1.23;;
14139;SDS011;7150;53.514;9.988;2023-06-04T13:27:26;2.40;;;1.63;;
14139;SDS011;7150;53.514;9.988;2023-06-04T13:29:52;1.80;;;1.13;;
14139;SDS011;7150;53.514;9.988;2023-06-04T13:32:17;5.63;;;1.80;;
14139;SDS011;7150;53.514;9.988;2023-06-04T13:34:43;1.93;;;1.40;;
14139;SDS011;7150;53.514;9.988;2023-06-04T13:37:08;3.23;;;1.90;;
14139;SDS011;7150;53.514;9.988;2023-06-04T13:39:37;3.97;;;2.07;;
14139;SDS011;7150;53.514;9.988;2023-06-04T13:42:03;2.90;;;1.90;;
14139;SDS011;7150;53.514;9.988;2023-06-04T13:44:28;3.57;;;1.67;;
14139;SDS011;7150;53.514;9.988;2023-06-04T13:46:54;1.77;;;1.23;;
14139;SDS011;7150;53.514;9.988;2023-06-04T13:49:19;2.80;;;1.73;;
14139;SDS011;7150;53.514;9.988;2023-06-04T13:51:45;3.60;;;1.70;;
14139;SDS011;7150;53.514;9.988;2023-06-04T13:54:11;3.33;;;1.67;;
14139;SDS011;7150;53.514;9.988;2023-06-04T13:56:36;2.77;;;1.70;;
14139;SDS011;7150;53.514;9.988;2023-06-04T13:59:02;4.63;;;1.77;;
14139;SDS011;7150;53.514;9.988;2023-06-04T14:01:27;2.53;;;1.73;;
14139;SDS011;7150;53.514;9.988;2023-06-04T14:03:53;2.67;;;1.60;;
14139;SDS011;7150;53.514;9.988;2023-06-04T14:06:18;1.63;;;1.27;;
14139;SDS011;7150;53.514;9.988;2023-06-04T14:08:44;1.60;;;1.30;;
14139;SDS011;7150;53.514;9.988;2023-06-04T14:11:09;2.60;;;1.70;;
14139;SDS011;7150;53.514;9.988;2023-06-04T14:13:35;2.00;;;1.63;;
14139;SDS011;7150;53.514;9.988;2023-06-04T14:16:02;2.27;;;1.37;;
14139;SDS011;7150;53.514;9.988;2023-06-04T14:18:29;1.67;;;1.30;;
14139;SDS011;7150;53.514;9.988;2023-06-04T14:20:54;1.83;;;1.50;;
14139;SDS011;7150;53.514;9.988;2023-06-04T14:23:20;2.27;;;1.53;;
14139;SDS011;7150;53.514;9.988;2023-06-04T14:25:45;3.10;;;1.60;;
14139;SDS011;7150;53.514;9.988;2023-06-04T14:28:11;1.37;;;1.17;;
14139;SDS011;7150;53.514;9.988;2023-06-04T14:30:36;2.27;;;1.20;;
14139;SDS011;7150;53.514;9.988;2023-06-04T14:33:02;2.03;;;1.33;;
14139;SDS011;7150;53.514;9.988;2023-06-04T14:35:27;2.07;;;1.30;;
14139;SDS011;7150;53.514;9.988;2023-06-04T14:37:52;2.43;;;1.63;;
14139;SDS011;7150;53.514;9.988;2023-06-04T14:40:18;2.70;;;1.50;;
14139;SDS011;7150;53.514;9.988;2023-06-04T14:42:43;4.60;;;1.70;;
14139;SDS011;7150;53.514;9.988;2023-06-04T14:45:09;2.57;;;1.47;;
14139;SDS011;7150;53.514;9.988;2023-06-04T14:47:35;2.40;;;1.47;;
14139;SDS011;7150;53.514;9.988;2023-06-04T14:50:00;1.97;;;1.50;;
14139;SDS011;7150;53.514;9.988;2023-06-04T14:52:26;2.43;;;1.27;;
14139;SDS011;7150;53.514;9.988;2023-06-04T14:54:52;2.30;;;1.40;;
14139;SDS011;7150;53.514;9.988;2023-06-04T14:57:18;2.07;;;1.40;;
14139;SDS011;7150;53.514;9.988;2023-06-04T14:59:44;2.00;;;1.43;;
14139;SDS011;7150;53.514;9.988;2023-06-04T15:02:10;2.57;;;1.53;;
14139;SDS011;7150;53.514;9.988;2023-06-04T15:04:36;2.20;;;1.77;;